メインページ
METAR-TAF:

METAR-TAF

空港 :

ヌメア国際空港, ニューカレドニア

緯度: 22-01S, 経度: 166-13E, 海抜: 16m

現時点の気象観測

当レポートは11分前の13:00(UTC)に作成
無風
気温 23°C
湿度 78%
気圧 1013 hPa
視程10km以上
1,500メートル以下は雲なし、積乱雲なし

METAR: NWWW 201300Z AUTO 00000KT CAVOK 23/19 Q1013 NOSIG

時間: 00:11 (13:11 UTC)

予報

当レポートは2時間11分前の11:00(UTC)に作成
予報は20日の 12時(UTC)から 21日の 12時(UTC)まで有効
東/南東の風 10kt
視程10km以上
高度5000ftの雲は散在している
20日の 12時(UTC)から 20日の 15時(UTC)まで徐々に
変向風 2kt
20日の 22時(UTC)から 20日の 24時(UTC)まで徐々に
南東の風 15kt、最大25ktの突風を伴う
確率 30% :
21日の 00時(UTC)から 21日の 06時(UTC)まで一時的に
高度3000ftの雲はほとんどない, 塔状積雲.
にわか雨

TAF: NWWW 201100Z 2012/2112 12010KT 9999 SCT050 BECMG 2012/2015 VRB02KT BECMG 2022/2024 14015G25KT PROB30 TEMPO 2100/2106 SHRA FEW030TCU

4,000以上の空港の気象観測と天気予報(METAR報とTAF報)

利用可能な観測所は地図上に黄色い丸と赤い丸で示す。

丸の上にカーソルを重ねると観測所名を参照できる。

次にクリックすると気象観測と天気予報を参照できる。

マップの切り替え:黒色「×」印の緑ボタンをクリックして拡大、「-」印の緑ボタンをクリックして縮小、緑色の三角印をクリックして隣りの地図に切り替え


METAR-TAF: